Terminal Aerodrome Forecast
Issued by NWS Atlanta, GA

Home | Current Version | Previous Version | Text Only | Print | Product List | Glossary On
Versions: 1 2 3 4 5 6 7 8 9 10 11 12 13 14 15 16 17 18 19 20 21 22 23
000
FTUS42 KFFC 230800 AAA
TAFMCN
TAF AMD
KMCN 230843Z 2309/2406 00000KT 6SM BR SKC
      TEMPO 2309/2311 4SM BR SKC
     FM231600 33004KT P6SM SKC
     FM240100 00000KT P6SM SCT250=

USA.gov is the U.S. government's official web portal to all federal, state and local government web resources and services.